Terminal Aerodrome Forecast
Issued by NWS

Home | Current Version | Previous Version | Text Only | Print | Product List | Glossary Off
Versions: 1 2 3 4 5 6 7 8 9 10 11 12 13 14

249
FTUS42 KMHX 240751 AAA
TAFPGV
TAF AMD
KPGV 240751Z 2408/2506 22007KT P6SM BKN015
     FM241500 22013KT P6SM BKN025
     FM241800 22010G16KT P6SM VCTS SCT025CB BKN100
     FM250000 22007KT P6SM VCSH BKN250
      AMD LTD TO CLD VIS AND WIND=

USA.gov is the U.S. government's official web portal to all federal, state and local government web resources and services.